Time,TemperatureF,DewpointF,PressureIn,WindDirection,WindDirectionDegrees,WindSpeedMPH,WindSpeedGustMPH,Humidity,HourlyPrecipIn,Conditions,Clouds,dailyrainin,SolarRadiationWatts/m^2,SoftwareType,DateUTC
2013-08-22 00:22:00,72.0,44.0,-100.00,SW,226,24.0,36.0,36,0.00,,,0.00,0.000000,,2013-08-22 07:22:00,
2013-08-22 00:32:00,72.0,44.0,-100.00,SW,226,24.0,36.0,36,0.00,,,0.00,0.000000,,2013-08-22 07:32:00,
2013-08-22 00:42:00,72.0,44.0,-100.00,SW,226,24.0,36.0,36,0.00,,,0.00,0.000000,,2013-08-22 07:42:00,
2013-08-22 00:51:00,73.0,38.0,-100.00,SW,223,24.0,31.0,28,0.00,,,0.00,0.000000,,2013-08-22 07:51:00,
2013-08-22 01:22:00,73.0,38.0,-100.00,SW,223,24.0,31.0,28,0.00,,,0.00,0.000000,,2013-08-22 08:22:00,
2013-08-22 01:33:00,73.0,38.0,-100.00,SW,223,24.0,31.0,28,0.00,,,0.00,0.000000,,2013-08-22 08:33:00,
2013-08-22 01:43:00,73.0,38.0,-100.00,SW,223,24.0,31.0,28,0.00,,,0.00,0.000000,,2013-08-22 08:43:00,
2013-08-22 01:51:00,72.0,41.0,-100.00,SW,229,13.0,29.0,32,0.00,,,0.00,0.000000,,2013-08-22 08:51:00,
2013-08-22 02:22:00,72.0,41.0,-100.00,SW,229,13.0,29.0,32,0.00,,,0.00,0.000000,,2013-08-22 09:22:00,
2013-08-22 02:33:00,72.0,41.0,-100.00,SW,229,13.0,29.0,32,0.00,,,0.00,0.000000,,2013-08-22 09:33:00,
2013-08-22 02:43:00,72.0,41.0,-100.00,SW,229,13.0,29.0,32,0.00,,,0.00,0.000000,,2013-08-22 09:43:00,
2013-08-22 03:42:00,74.0,37.0,-100.00,SW,224,14.0,23.0,26,0.00,,,0.00,0.000000,,2013-08-22 10:42:00,
2013-08-22 04:51:00,70.0,36.0,-100.00,SW,219,2.0,15.0,29,0.00,,,0.00,0.000000,,2013-08-22 11:51:00,
2013-08-22 05:32:00,70.0,36.0,-100.00,SW,219,2.0,15.0,29,0.00,,,0.00,0.000000,,2013-08-22 12:32:00,
2013-08-22 05:42:00,70.0,36.0,-100.00,SW,219,2.0,15.0,29,0.00,,,0.00,0.000000,,2013-08-22 12:42:00,
2013-08-22 05:51:00,70.0,35.0,-100.00,South,185,1.0,8.0,28,0.00,,,0.00,0.000000,,2013-08-22 12:51:00,
2013-08-22 06:22:00,70.0,35.0,-100.00,South,185,1.0,8.0,28,0.00,,,0.00,0.000000,,2013-08-22 13:22:00,
2013-08-22 06:32:00,70.0,35.0,-100.00,South,185,1.0,8.0,28,0.00,,,0.00,0.000000,,2013-08-22 13:32:00,
2013-08-22 06:42:00,70.0,35.0,-100.00,South,185,1.0,8.0,28,0.00,,,0.00,0.000000,,2013-08-22 13:42:00,
2013-08-22 06:51:00,70.0,37.0,-100.00,SSE,159,0.0,6.0,30,0.00,,,-99.99,28.000000,,2013-08-22 13:51:00,
2013-08-22 07:22:00,70.0,37.0,-100.00,SSE,159,0.0,6.0,30,0.00,,,-99.99,28.000000,,2013-08-22 14:22:00,
2013-08-22 07:33:00,70.0,37.0,-100.00,SSE,159,0.0,6.0,30,0.00,,,-99.99,28.000000,,2013-08-22 14:33:00,
2013-08-22 07:42:00,70.0,37.0,-100.00,SSE,159,0.0,6.0,30,0.00,,,-99.99,28.000000,,2013-08-22 14:42:00,
2013-08-22 08:51:00,79.0,38.0,-100.00,NNE,30,2.0,8.0,23,-99.99,,,0.00,336.000000,,2013-08-22 15:51:00,
2013-08-22 09:43:00,79.0,38.0,-100.00,NNE,30,2.0,8.0,23,-99.99,,,0.00,336.000000,,2013-08-22 16:43:00,
2013-08-22 09:51:00,80.0,40.0,-100.00,ENE,75,5.0,13.0,24,0.00,,,0.00,667.000000,,2013-08-22 16:51:00,
2013-08-22 10:24:00,80.0,40.0,-100.00,ENE,75,5.0,13.0,24,0.00,,,0.00,667.000000,,2013-08-22 17:24:00,
2013-08-22 10:33:00,80.0,40.0,-100.00,ENE,75,5.0,13.0,24,0.00,,,0.00,667.000000,,2013-08-22 17:33:00,
2013-08-22 10:42:00,80.0,40.0,-100.00,ENE,75,5.0,13.0,24,0.00,,,0.00,667.000000,,2013-08-22 17:42:00,
2013-08-22 10:51:00,83.0,40.0,-100.00,East,88,10.0,18.0,22,0.00,,,0.00,919.000000,,2013-08-22 17:51:00,
2013-08-22 11:21:00,83.0,40.0,-100.00,East,88,10.0,18.0,22,0.00,,,0.00,919.000000,,2013-08-22 18:21:00,
2013-08-22 11:32:00,83.0,40.0,-100.00,East,88,10.0,18.0,22,0.00,,,0.00,919.000000,,2013-08-22 18:32:00,
2013-08-22 11:43:00,83.0,40.0,-100.00,East,88,10.0,18.0,22,0.00,,,0.00,919.000000,,2013-08-22 18:43:00,
2013-08-22 11:51:00,85.0,38.0,-100.00,NW,307,11.0,22.0,19,0.00,,,0.00,1039.000000,,2013-08-22 18:51:00,
2013-08-22 12:22:00,85.0,38.0,-100.00,NW,307,11.0,22.0,19,0.00,,,0.00,1039.000000,,2013-08-22 19:22:00,
2013-08-22 12:32:00,85.0,38.0,-100.00,NW,307,11.0,22.0,19,0.00,,,0.00,1039.000000,,2013-08-22 19:32:00,
2013-08-22 12:42:00,85.0,38.0,-100.00,NW,307,11.0,22.0,19,0.00,,,0.00,1039.000000,,2013-08-22 19:42:00,
2013-08-22 12:51:00,84.0,39.0,-100.00,South,173,13.0,23.0,20,0.00,,,0.00,1143.000000,,2013-08-22 19:51:00,
2013-08-22 13:23:00,84.0,39.0,-100.00,South,173,13.0,23.0,20,0.00,,,0.00,1143.000000,,2013-08-22 20:23:00,
2013-08-22 13:32:00,84.0,39.0,-100.00,South,173,13.0,23.0,20,0.00,,,0.00,1143.000000,,2013-08-22 20:32:00,
2013-08-22 13:42:00,84.0,39.0,-100.00,South,173,13.0,23.0,20,0.00,,,0.00,1143.000000,,2013-08-22 20:42:00,
2013-08-22 13:51:00,84.0,42.0,-100.00,South,173,17.0,24.0,23,0.00,,,0.00,1132.000000,,2013-08-22 20:51:00,
2013-08-22 14:22:00,84.0,42.0,-100.00,South,173,17.0,24.0,23,0.00,,,0.00,1132.000000,,2013-08-22 21:22:00,
2013-08-22 14:34:00,84.0,42.0,-100.00,South,173,17.0,24.0,23,0.00,,,0.00,1132.000000,,2013-08-22 21:34:00,
2013-08-22 14:44:00,84.0,42.0,-100.00,South,173,17.0,24.0,23,0.00,,,0.00,1132.000000,,2013-08-22 21:44:00,
2013-08-22 14:51:00,83.0,40.0,-100.00,South,173,18.0,27.0,22,0.00,,,0.00,1099.000000,,2013-08-22 21:51:00,
2013-08-22 15:24:00,83.0,40.0,-100.00,South,173,18.0,27.0,22,0.00,,,0.00,1099.000000,,2013-08-22 22:24:00,
2013-08-22 15:34:00,83.0,40.0,-100.00,South,173,18.0,27.0,22,0.00,,,0.00,1099.000000,,2013-08-22 22:34:00,
2013-08-22 15:42:00,83.0,40.0,-100.00,South,173,18.0,27.0,22,0.00,,,0.00,1099.000000,,2013-08-22 22:42:00,
2013-08-22 15:51:00,82.0,41.0,-100.00,South,170,15.0,27.0,23,0.00,,,0.00,710.000000,,2013-08-22 22:51:00,
2013-08-22 16:22:00,82.0,41.0,-100.00,South,170,15.0,27.0,23,0.00,,,0.00,710.000000,,2013-08-22 23:22:00,
2013-08-22 16:33:00,82.0,41.0,-100.00,South,170,15.0,27.0,23,0.00,,,0.00,710.000000,,2013-08-22 23:33:00,
2013-08-22 16:42:00,82.0,41.0,-100.00,South,170,15.0,27.0,23,0.00,,,0.00,710.000000,,2013-08-22 23:42:00,
2013-08-22 16:51:00,79.0,38.0,-100.00,NNW,338,5.0,32.0,23,0.00,,,0.00,279.000000,,2013-08-22 23:51:00,
2013-08-22 17:23:00,79.0,38.0,-100.00,NNW,338,5.0,32.0,23,0.00,,,0.00,279.000000,,2013-08-23 00:23:00,
2013-08-22 17:33:00,79.0,38.0,-100.00,NNW,338,5.0,32.0,23,0.00,,,0.00,279.000000,,2013-08-23 00:33:00,
2013-08-22 17:42:00,79.0,38.0,-100.00,NNW,338,5.0,32.0,23,0.00,,,0.00,279.000000,,2013-08-23 00:42:00,
2013-08-22 17:51:00,77.0,39.0,-100.00,SSE,168,10.0,18.0,26,0.00,,,0.00,79.000000,,2013-08-23 00:51:00,
2013-08-22 18:21:00,77.0,39.0,-100.00,SSE,168,10.0,18.0,26,0.00,,,0.00,79.000000,,2013-08-23 01:21:00,
2013-08-22 18:33:00,77.0,39.0,-100.00,SSE,168,10.0,18.0,26,0.00,,,0.00,79.000000,,2013-08-23 01:33:00,
2013-08-22 18:41:00,77.0,39.0,-100.00,SSE,168,10.0,18.0,26,0.00,,,0.00,79.000000,,2013-08-23 01:41:00,
2013-08-22 18:51:00,78.0,38.0,-100.00,SSE,159,7.0,13.0,24,0.00,,,0.00,67.000000,,2013-08-23 01:51:00,
2013-08-22 19:22:00,78.0,38.0,-100.00,SSE,159,7.0,13.0,24,0.00,,,0.00,67.000000,,2013-08-23 02:22:00,
2013-08-22 19:32:00,78.0,38.0,-100.00,SSE,159,7.0,13.0,24,0.00,,,0.00,67.000000,,2013-08-23 02:32:00,
2013-08-22 19:42:00,78.0,38.0,-100.00,SSE,159,7.0,13.0,24,0.00,,,0.00,67.000000,,2013-08-23 02:42:00,
2013-08-22 19:51:00,76.0,39.0,-100.00,SW,226,14.0,21.0,26,0.00,,,0.00,19.000000,,2013-08-23 02:51:00,
2013-08-22 20:22:00,76.0,39.0,-100.00,SW,226,14.0,21.0,26,0.00,,,0.00,19.000000,,2013-08-23 03:22:00,
2013-08-22 20:34:00,76.0,39.0,-100.00,SW,226,14.0,21.0,26,0.00,,,0.00,19.000000,,2013-08-23 03:34:00,
2013-08-22 20:44:00,76.0,39.0,-100.00,SW,226,14.0,21.0,26,0.00,,,0.00,19.000000,,2013-08-23 03:44:00,
2013-08-22 20:51:00,74.0,39.0,-100.00,SW,232,12.0,25.0,28,0.00,,,-99.99,0.000000,,2013-08-23 03:51:00,
2013-08-22 21:24:00,74.0,39.0,-100.00,SW,232,12.0,25.0,28,0.00,,,-99.99,0.000000,,2013-08-23 04:24:00,
2013-08-22 21:34:00,74.0,39.0,-100.00,SW,232,12.0,25.0,28,0.00,,,-99.99,0.000000,,2013-08-23 04:34:00,
2013-08-22 21:43:00,74.0,39.0,-100.00,SW,232,12.0,25.0,28,0.00,,,-99.99,0.000000,,2013-08-23 04:43:00,
2013-08-22 21:51:00,70.0,41.0,-100.00,SSW,194,25.0,33.0,35,0.00,,,0.00,0.000000,,2013-08-23 04:51:00,
2013-08-22 22:22:00,70.0,41.0,-100.00,SSW,194,25.0,33.0,35,0.00,,,0.00,0.000000,,2013-08-23 05:22:00,
2013-08-22 22:34:00,70.0,41.0,-100.00,SSW,194,25.0,33.0,35,0.00,,,0.00,0.000000,,2013-08-23 05:34:00,
2013-08-22 22:42:00,70.0,41.0,-100.00,SSW,194,25.0,33.0,35,0.00,,,0.00,0.000000,,2013-08-23 05:42:00,
2013-08-22 22:51:00,67.0,55.0,-100.00,SW,225,26.0,38.0,65,0.00,,,0.00,0.000000,,2013-08-23 05:51:00,
2013-08-22 23:21:00,67.0,55.0,-100.00,SW,225,26.0,38.0,65,0.00,,,0.00,0.000000,,2013-08-23 06:21:00,
2013-08-22 23:32:00,67.0,55.0,-100.00,SW,225,26.0,38.0,65,0.00,,,0.00,0.000000,,2013-08-23 06:32:00,
2013-08-22 23:41:00,67.0,55.0,-100.00,SW,225,26.0,38.0,65,0.00,,,0.00,0.000000,,2013-08-23 06:41:00,
2013-08-22 23:51:00,68.0,48.0,-100.00,WSW,250,4.0,38.0,48,0.00,,,0.00,0.000000,,2013-08-23 06:51:00,